createdAt,value
2018-03-30T00:00:52.870Z,28.10
2018-03-30T00:03:20.590Z,30.07
2018-03-30T00:05:48.302Z,27.30
2018-03-30T00:08:16.317Z,30.50
2018-03-30T00:10:49.530Z,32.70
2018-03-30T00:13:17.334Z,32.27
2018-03-30T00:15:44.894Z,37.70
2018-03-30T00:18:12.478Z,39.70
2018-03-30T00:20:40.026Z,36.60
2018-03-30T00:23:08.006Z,41.67
2018-03-30T00:25:35.876Z,38.47
2018-03-30T00:28:03.544Z,36.97
2018-03-30T00:30:31.081Z,37.47
2018-03-30T00:32:58.756Z,38.37
2018-03-30T00:35:26.526Z,38.80
2018-03-30T00:37:54.086Z,39.13
2018-03-30T00:40:21.745Z,38.87
2018-03-30T00:42:49.518Z,38.80
2018-03-30T00:45:17.113Z,38.00
2018-03-30T00:47:44.833Z,35.97
2018-03-30T00:50:12.757Z,34.40
2018-03-30T00:52:40.389Z,38.40
2018-03-30T00:55:09.386Z,37.87
2018-03-30T00:57:36.926Z,38.13
2018-03-30T01:00:04.490Z,37.13
2018-03-30T01:02:32.107Z,39.63
2018-03-30T01:04:59.745Z,40.57
2018-03-30T01:07:27.550Z,44.37
2018-03-30T01:09:55.157Z,43.13
2018-03-30T01:12:22.880Z,38.27
2018-03-30T01:14:50.932Z,38.17
2018-03-30T01:17:19.046Z,41.83
2018-03-30T01:19:47.534Z,42.73
2018-03-30T01:22:15.913Z,42.57
2018-03-30T01:24:43.870Z,43.07
2018-03-30T01:27:12.341Z,46.53
2018-03-30T01:29:40.650Z,42.40
2018-03-30T01:32:08.227Z,41.03
2018-03-30T01:34:36.105Z,40.87
2018-03-30T01:37:03.650Z,45.73
2018-03-30T01:39:31.246Z,42.77
2018-03-30T01:41:58.898Z,43.47
2018-03-30T01:44:26.705Z,46.60
2018-03-30T01:46:54.288Z,44.20
2018-03-30T01:49:21.834Z,47.80
2018-03-30T01:51:49.382Z,44.93
2018-03-30T01:54:16.962Z,43.37
2018-03-30T01:56:44.510Z,42.73
2018-03-30T01:59:12.130Z,41.43
2018-03-30T02:01:40.506Z,43.20
2018-03-30T02:04:08.253Z,45.13
2018-03-30T02:06:35.793Z,48.43
2018-03-30T02:09:03.401Z,49.07
2018-03-30T02:11:31.785Z,50.27
2018-03-30T02:13:59.329Z,55.80
2018-03-30T02:16:27.841Z,52.63
2018-03-30T02:18:55.425Z,52.53
2018-03-30T02:21:22.967Z,52.50
2018-03-30T02:23:50.549Z,51.50
2018-03-30T02:26:18.090Z,52.20
2018-03-30T02:28:45.634Z,51.63
2018-03-30T02:31:14.410Z,50.03
2018-03-30T02:33:41.957Z,50.83
2018-03-30T02:36:09.502Z,51.77
2018-03-30T02:38:37.604Z,50.90
2018-03-30T02:41:05.155Z,50.70
2018-03-30T02:43:32.818Z,53.43
2018-03-30T02:46:00.418Z,51.17
2018-03-30T02:48:27.977Z,48.93
2018-03-30T02:50:55.522Z,50.97
2018-03-30T02:53:23.118Z,49.07
2018-03-30T02:55:50.669Z,51.40
2018-03-30T02:58:18.240Z,53.27
2018-03-30T03:00:45.912Z,60.33
2018-03-30T03:03:14.230Z,51.50
2018-03-30T03:05:41.813Z,46.30
2018-03-30T03:08:09.539Z,47.43
2018-03-30T03:10:37.081Z,46.90
2018-03-30T03:13:04.809Z,43.23
2018-03-30T03:15:32.425Z,42.67
2018-03-30T03:18:00.329Z,44.03
2018-03-30T03:20:27.955Z,37.93
2018-03-30T03:22:55.562Z,40.90
2018-03-30T03:25:24.614Z,42.97
2018-03-30T03:27:52.345Z,43.20
2018-03-30T03:30:19.986Z,46.23
2018-03-30T03:32:47.557Z,50.00
2018-03-30T03:35:15.870Z,48.23
2018-03-30T03:37:43.630Z,47.70
2018-03-30T03:40:11.173Z,48.77
2018-03-30T03:42:38.718Z,47.57
2018-03-30T03:45:06.317Z,43.90
2018-03-30T03:47:34.038Z,43.00
2018-03-30T03:50:01.766Z,42.87
2018-03-30T03:52:29.350Z,42.63
2018-03-30T03:54:57.082Z,47.23
2018-03-30T03:57:24.621Z,52.73
2018-03-30T03:59:52.194Z,48.77
2018-03-30T04:02:19.751Z,50.17
2018-03-30T04:04:47.310Z,47.93
2018-03-30T04:07:14.900Z,39.73
2018-03-30T04:09:42.465Z,43.30
2018-03-30T04:12:10.769Z,46.20
2018-03-30T04:14:38.602Z,45.33
2018-03-30T04:17:06.910Z,39.30
2018-03-30T04:19:34.672Z,35.47
2018-03-30T04:22:02.275Z,37.03
2018-03-30T04:24:30.099Z,38.40
2018-03-30T04:26:57.898Z,36.13
2018-03-30T04:29:25.489Z,39.63
2018-03-30T04:31:53.035Z,42.97
2018-03-30T04:34:20.633Z,42.27
2018-03-30T04:36:48.411Z,36.67
2018-03-30T04:39:15.949Z,37.87
2018-03-30T04:41:43.489Z,38.87
2018-03-30T04:44:11.874Z,37.10
2018-03-30T04:46:39.431Z,36.57
2018-03-30T04:49:07.864Z,35.23
2018-03-30T04:51:35.566Z,36.73
2018-03-30T04:54:03.966Z,44.93
2018-03-30T04:56:31.531Z,47.23
2018-03-30T04:58:59.129Z,43.30
2018-03-30T05:01:26.685Z,38.23
2018-03-30T05:03:54.238Z,39.37
2018-03-30T05:06:21.829Z,37.90
2018-03-30T05:08:49.561Z,35.03
2018-03-30T05:11:17.097Z,36.23
2018-03-30T05:13:44.686Z,38.17
2018-03-30T05:16:12.241Z,41.73
2018-03-30T05:18:40.550Z,44.73
2018-03-30T05:21:08.277Z,44.63
2018-03-30T05:23:35.818Z,45.63
2018-03-30T05:26:03.538Z,46.20
2018-03-30T05:28:31.110Z,48.43
2018-03-30T05:30:59.421Z,46.27
2018-03-30T05:33:27.033Z,45.63
2018-03-30T05:35:55.373Z,44.90
2018-03-30T05:38:23.687Z,49.90
2018-03-30T05:40:51.233Z,49.43
2018-03-30T05:43:19.683Z,51.50
2018-03-30T05:45:47.230Z,48.67
2018-03-30T05:48:14.954Z,41.83
2018-03-30T05:50:42.545Z,37.30
2018-03-30T05:53:10.321Z,32.80
2018-03-30T05:55:38.159Z,31.23
2018-03-30T05:58:05.899Z,33.10
2018-03-30T06:00:33.464Z,33.00
2018-03-30T06:03:01.006Z,32.97
2018-03-30T06:05:29.506Z,33.77
2018-03-30T06:07:57.486Z,25.50
2018-03-30T06:10:25.031Z,25.33
2018-03-30T06:12:52.616Z,42.40
2018-03-30T06:15:20.166Z,45.73
2018-03-30T06:17:47.893Z,38.33
2018-03-30T06:20:15.473Z,27.53
2018-03-30T06:22:43.656Z,31.53
2018-03-30T06:25:11.210Z,34.83
2018-03-30T06:27:38.803Z,31.73
2018-03-30T06:30:06.354Z,24.23
2018-03-30T06:32:33.922Z,26.03
2018-03-30T06:35:01.720Z,28.03
2018-03-30T06:37:29.621Z,26.20
2018-03-30T06:39:57.167Z,24.93
2018-03-30T06:42:24.751Z,20.90
2018-03-30T06:44:52.354Z,17.63
2018-03-30T06:47:19.922Z,17.73
2018-03-30T06:49:48.303Z,24.70
2018-03-30T06:52:16.750Z,20.57
2018-03-30T06:54:44.314Z,24.93
2018-03-30T06:57:12.044Z,32.40
2018-03-30T06:59:39.717Z,28.63
2018-03-30T07:02:07.270Z,27.63
2018-03-30T07:04:35.022Z,30.53
2018-03-30T07:07:02.566Z,30.93
2018-03-30T07:09:30.110Z,37.17
2018-03-30T07:11:57.695Z,33.17
2018-03-30T07:14:25.411Z,31.60
2018-03-30T07:16:53.320Z,31.40
2018-03-30T07:19:20.898Z,32.57
2018-03-30T07:21:48.447Z,33.77
2018-03-30T07:24:16.425Z,64.03
2018-03-30T07:26:44.021Z,29.37
2018-03-30T07:29:12.417Z,26.07
2018-03-30T07:31:40.133Z,31.77
2018-03-30T07:34:07.762Z,35.43
2018-03-30T07:36:35.453Z,27.43
2018-03-30T07:39:03.496Z,35.57
2018-03-30T07:41:31.096Z,31.47
2018-03-30T07:43:58.786Z,27.33
2018-03-30T07:46:26.342Z,21.27
2018-03-30T07:48:53.929Z,24.17
2018-03-30T07:51:21.582Z,20.87
2018-03-30T07:53:49.458Z,21.10
2018-03-30T07:56:17.090Z,19.30
2018-03-30T07:58:44.641Z,21.67
2018-03-30T08:01:13.107Z,20.20
2018-03-30T08:03:41.468Z,15.80
2018-03-30T08:06:10.810Z,15.23
2018-03-30T08:08:38.352Z,11.90
2018-03-30T08:11:06.704Z,16.87
2018-03-30T08:13:34.257Z,27.60
2018-03-30T08:16:01.814Z,31.90
2018-03-30T08:18:30.926Z,19.20
2018-03-30T08:20:58.602Z,12.47
2018-03-30T08:23:26.154Z,13.53
2018-03-30T08:25:54.882Z,24.53
2018-03-30T08:28:22.435Z,18.20
2018-03-30T08:30:50.083Z,13.13
2018-03-30T08:33:17.970Z,6.67
2018-03-30T08:35:45.527Z,6.20
2018-03-30T08:38:13.115Z,7.37
2018-03-30T08:40:40.720Z,9.77
2018-03-30T08:43:08.286Z,6.83
2018-03-30T08:45:35.878Z,7.07
2018-03-30T08:48:04.286Z,9.60
2018-03-30T08:50:31.841Z,6.57
2018-03-30T08:52:59.527Z,15.00
2018-03-30T08:55:27.975Z,15.33
2018-03-30T08:57:55.570Z,6.00
2018-03-30T09:00:23.125Z,7.93
2018-03-30T09:02:51.477Z,7.90
2018-03-30T09:05:20.046Z,7.10
2018-03-30T09:07:47.595Z,6.47
2018-03-30T09:10:15.353Z,13.03
2018-03-30T09:12:42.900Z,11.20
2018-03-30T09:15:10.441Z,6.90
2018-03-30T09:17:38.122Z,8.20
2018-03-30T09:20:05.667Z,7.23
2018-03-30T09:22:33.224Z,6.00
2018-03-30T09:25:00.806Z,6.00
2018-03-30T09:27:28.787Z,5.83
2018-03-30T09:29:56.339Z,6.27
2018-03-30T09:32:23.979Z,5.73
2018-03-30T09:34:51.622Z,5.87
2018-03-30T09:37:19.168Z,5.87
2018-03-30T09:39:47.101Z,6.13
2018-03-30T09:42:14.817Z,6.47
2018-03-30T09:44:42.567Z,8.70
2018-03-30T09:47:10.535Z,10.93
2018-03-30T09:49:38.092Z,7.80
2018-03-30T09:52:06.184Z,9.90
2018-03-30T09:54:33.842Z,8.93
2018-03-30T09:57:01.710Z,9.57
2018-03-30T09:59:29.322Z,10.27
2018-03-30T10:01:57.133Z,8.80
2018-03-30T10:04:28.667Z,11.07
2018-03-30T10:06:56.260Z,6.20
2018-03-30T10:09:24.145Z,8.77
2018-03-30T10:11:51.693Z,6.03
2018-03-30T10:14:19.245Z,8.03
2018-03-30T10:16:46.965Z,12.57
2018-03-30T10:19:14.515Z,7.23
2018-03-30T10:21:42.399Z,6.17
2018-03-30T10:24:10.059Z,6.97
2018-03-30T10:26:37.606Z,4.87
2018-03-30T10:29:05.929Z,4.97
2018-03-30T10:31:33.619Z,5.30
2018-03-30T10:34:01.716Z,4.70
2018-03-30T10:36:29.623Z,4.70
2018-03-30T10:38:57.508Z,5.10
2018-03-30T10:41:25.859Z,4.73
2018-03-30T10:43:53.615Z,4.10
2018-03-30T10:46:21.529Z,4.23
2018-03-30T10:48:49.897Z,4.10
2018-03-30T10:51:17.864Z,3.60
2018-03-30T10:53:45.902Z,8.30
2018-03-30T10:56:13.471Z,13.97
2018-03-30T10:58:41.033Z,5.20
2018-03-30T11:01:08.624Z,4.30
2018-03-30T11:03:36.191Z,3.83
2018-03-30T11:06:04.715Z,3.60
2018-03-30T11:08:32.473Z,2.90
2018-03-30T11:11:00.194Z,3.00
2018-03-30T11:13:28.538Z,3.60
2018-03-30T11:15:56.447Z,3.20
2018-03-30T11:18:24.017Z,3.50
2018-03-30T11:20:52.259Z,4.97
2018-03-30T11:23:20.626Z,4.20
2018-03-30T11:25:48.934Z,3.57
2018-03-30T11:28:16.505Z,3.67
2018-03-30T11:30:44.311Z,3.50
2018-03-30T11:33:11.865Z,3.70
2018-03-30T11:35:40.979Z,3.83
2018-03-30T11:38:10.384Z,3.60
2018-03-30T11:40:37.928Z,3.60
2018-03-30T11:43:05.486Z,3.30
2018-03-30T11:45:33.074Z,3.53
2018-03-30T11:48:00.632Z,3.50
2018-03-30T11:50:29.302Z,3.07
2018-03-30T11:52:56.946Z,3.10
2018-03-30T11:55:24.634Z,3.03
2018-03-30T11:57:53.161Z,4.20
2018-03-30T12:00:21.011Z,3.53
2018-03-30T12:02:48.555Z,4.80
2018-03-30T12:05:16.105Z,4.03
2018-03-30T12:07:44.474Z,4.00
2018-03-30T12:10:12.034Z,3.20
2018-03-30T12:12:40.347Z,2.73
2018-03-30T12:15:08.068Z,2.57
2018-03-30T12:17:36.848Z,3.07
2018-03-30T12:20:04.674Z,4.37
2018-03-30T12:22:32.273Z,5.50
2018-03-30T12:25:00.066Z,4.77
2018-03-30T12:27:27.657Z,7.27
2018-03-30T12:29:55.573Z,5.03
2018-03-30T12:32:24.190Z,2.97
2018-03-30T12:34:51.740Z,3.50
2018-03-30T12:37:19.324Z,2.80
2018-03-30T12:39:46.949Z,2.20
2018-03-30T12:42:14.493Z,3.77
2018-03-30T12:44:42.846Z,2.90
2018-03-30T12:47:10.398Z,3.80
2018-03-30T12:49:38.001Z,3.43
2018-03-30T12:52:05.597Z,2.43
2018-03-30T12:54:33.326Z,2.87
2018-03-30T12:57:00.876Z,3.80
2018-03-30T12:59:28.579Z,4.90
2018-03-30T13:01:56.133Z,3.30
2018-03-30T13:04:23.826Z,4.07
2018-03-30T13:06:51.655Z,4.97
2018-03-30T13:09:19.297Z,4.13
2018-03-30T13:11:46.870Z,2.80
2018-03-30T13:14:14.474Z,10.40
2018-03-30T13:16:42.120Z,6.70
2018-03-30T13:19:09.971Z,2.60
2018-03-30T13:21:37.703Z,2.10
2018-03-30T13:24:05.366Z,3.10
2018-03-30T13:26:32.920Z,3.33
2018-03-30T13:29:00.742Z,4.50
2018-03-30T13:31:28.580Z,3.87
2018-03-30T13:33:56.481Z,3.13
2018-03-30T13:36:24.077Z,3.27
2018-03-30T13:38:51.970Z,2.43
2018-03-30T13:41:19.923Z,3.40
2018-03-30T13:43:48.685Z,2.80
2018-03-30T13:46:17.113Z,2.20
2018-03-30T13:48:44.670Z,2.70
2018-03-30T13:51:18.190Z,6.27
2018-03-30T13:56:55.925Z,2.43
2018-03-30T13:59:25.227Z,2.90
2018-03-30T14:02:10.286Z,4.20
2018-03-30T14:04:48.564Z,3.30
2018-03-30T14:07:34.951Z,2.60
2018-03-30T14:10:11.463Z,3.47
2018-03-30T14:12:44.925Z,3.20
2018-03-30T14:15:14.256Z,2.60
2018-03-30T14:17:43.668Z,3.47
2018-03-30T14:20:22.519Z,11.70
2018-03-30T14:22:52.710Z,4.47
2018-03-30T14:25:21.202Z,36.97
2018-03-30T14:27:57.509Z,4.33
2018-03-30T14:30:25.109Z,6.07
2018-03-30T14:39:03.104Z,70.70
2018-03-30T14:41:30.691Z,19.37
2018-03-30T14:44:00.168Z,25.00
2018-03-30T14:46:28.945Z,4.70
2018-03-30T14:48:56.627Z,2.80
2018-03-30T14:51:29.744Z,4.10
2018-03-30T14:53:58.590Z,5.87
2018-03-30T14:56:29.154Z,5.47
2018-03-30T14:58:59.882Z,3.60
2018-03-30T15:01:47.701Z,5.33
2018-03-30T15:04:33.151Z,7.97
2018-03-30T15:07:06.473Z,22.80
2018-03-30T15:09:40.386Z,24.27
2018-03-30T15:12:19.441Z,5.47
2018-03-30T15:18:02.531Z,11.20
2018-03-30T15:20:31.116Z,5.57
2018-03-30T15:23:25.500Z,13.17
2018-03-30T15:26:00.123Z,35.90
2018-03-30T15:28:28.555Z,13.73
2018-03-30T15:31:03.228Z,18.33
2018-03-30T15:36:32.064Z,18.13
2018-03-30T15:38:59.637Z,21.83
2018-03-30T15:41:28.351Z,26.03
2018-03-30T15:43:56.208Z,16.93
2018-03-30T15:46:25.276Z,19.50
2018-03-30T15:48:52.960Z,10.93
2018-03-30T15:51:30.202Z,16.77
2018-03-30T15:53:57.268Z,12.30
2018-03-30T15:56:26.166Z,7.47
2018-03-30T15:58:53.803Z,30.97
2018-03-30T16:01:21.365Z,72.83
2018-03-30T16:03:48.937Z,53.40
2018-03-30T16:06:16.606Z,28.13
2018-03-30T16:08:45.255Z,61.67
2018-03-30T16:14:09.533Z,41.00
2018-03-30T16:16:37.514Z,31.10
2018-03-30T16:19:04.765Z,43.53
2018-03-30T16:21:31.846Z,49.60
2018-03-30T16:23:58.982Z,41.27
2018-03-30T16:26:26.313Z,36.13
2018-03-30T16:28:53.376Z,34.07
2018-03-30T16:31:20.516Z,88.10
2018-03-30T16:33:47.612Z,140.17
2018-03-30T16:36:14.686Z,176.53
2018-03-30T16:38:42.327Z,102.10
2018-03-30T16:41:09.536Z,127.07
2018-03-30T16:43:36.721Z,93.27
2018-03-30T16:46:04.626Z,41.23
2018-03-30T16:48:31.776Z,46.57
2018-03-30T16:50:58.889Z,36.57
2018-03-30T16:53:26.021Z,105.17
2018-03-30T16:55:53.534Z,55.37
2018-03-30T16:58:20.621Z,45.93
2018-03-30T17:00:48.645Z,57.10
2018-03-30T17:03:15.761Z,60.33
2018-03-30T17:05:43.630Z,54.53
2018-03-30T17:08:10.757Z,44.77
2018-03-30T17:10:37.828Z,41.00
2018-03-30T17:13:05.077Z,40.63
2018-03-30T17:15:32.171Z,48.97
2018-03-30T17:17:59.225Z,46.37
2018-03-30T17:20:26.308Z,23.33
2018-03-30T17:22:54.418Z,38.47
2018-03-30T17:25:21.482Z,51.73
2018-03-30T17:27:48.540Z,65.13
2018-03-30T17:30:15.659Z,48.57
2018-03-30T17:32:42.734Z,40.17
2018-03-30T17:35:09.798Z,35.93
2018-03-30T17:37:37.028Z,37.53
2018-03-30T17:40:04.373Z,49.63
2018-03-30T17:42:31.452Z,40.17
2018-03-30T17:44:59.859Z,77.17
2018-03-30T17:47:27.237Z,56.50
2018-03-30T17:49:54.290Z,84.37
2018-03-30T17:52:21.404Z,70.23
2018-03-30T17:54:48.463Z,81.63
2018-03-30T17:57:15.927Z,87.70
2018-03-30T17:59:43.001Z,81.93
2018-03-30T18:02:10.066Z,101.77
2018-03-30T18:04:37.234Z,82.53
2018-03-30T18:07:05.076Z,119.93
2018-03-30T18:09:32.153Z,118.87
2018-03-30T18:12:00.038Z,111.10
2018-03-30T18:14:27.261Z,112.27
2018-03-30T18:16:55.154Z,146.50
2018-03-30T18:19:22.259Z,142.53
2018-03-30T18:21:49.324Z,266.80
2018-03-30T18:24:16.825Z,191.83
2018-03-30T18:26:44.136Z,218.37
2018-03-30T18:29:11.977Z,279.87
2018-03-30T18:31:39.194Z,302.77
2018-03-30T18:34:06.332Z,282.13
2018-03-30T18:36:33.406Z,231.87
2018-03-30T18:39:00.481Z,329.43
2018-03-30T18:41:27.744Z,525.63
2018-03-30T18:43:55.037Z,274.13
2018-03-30T18:46:22.102Z,350.03
2018-03-30T18:48:49.462Z,254.83
2018-03-30T18:51:16.590Z,315.90
2018-03-30T18:53:43.832Z,166.13
2018-03-30T18:56:10.950Z,137.07
2018-03-30T18:58:38.799Z,108.33
2018-03-30T19:01:06.823Z,110.20
2018-03-30T19:03:33.942Z,95.67
2018-03-30T19:06:01.221Z,156.13
2018-03-30T19:08:29.419Z,160.17
2018-03-30T19:10:56.552Z,151.37
2018-03-30T19:13:23.626Z,128.97
2018-03-30T19:15:50.714Z,129.43
2018-03-30T19:18:18.063Z,109.30
2018-03-30T19:20:45.633Z,113.03
2018-03-30T19:23:12.806Z,93.23
2018-03-30T19:25:39.908Z,111.80
2018-03-30T19:28:07.013Z,80.40
2018-03-30T19:30:34.086Z,80.17
2018-03-30T19:33:01.979Z,104.20
2018-03-30T19:35:29.086Z,96.23
2018-03-30T19:37:56.150Z,103.07
2018-03-30T19:40:23.215Z,91.27
2018-03-30T19:42:50.343Z,95.10
2018-03-30T19:45:17.692Z,96.47
2018-03-30T19:47:44.888Z,95.80
2018-03-30T19:50:17.943Z,93.93
2018-03-30T19:52:48.622Z,84.27
2018-03-30T19:55:17.259Z,91.90
2018-03-30T19:57:48.706Z,131.87
2018-03-30T20:00:16.687Z,82.80
2018-03-30T20:02:43.955Z,208.27
2018-03-30T20:05:14.627Z,106.90
2018-03-30T20:07:42.643Z,79.17
2018-03-30T20:10:11.786Z,128.37
2018-03-30T20:12:39.157Z,125.87
2018-03-30T20:15:14.111Z,160.87
2018-03-30T20:17:42.232Z,132.80
2018-03-30T20:20:09.894Z,117.27
2018-03-30T20:22:37.145Z,112.90
2018-03-30T20:25:05.353Z,138.37
2018-03-30T20:27:33.770Z,108.87
2018-03-30T20:30:03.246Z,135.60
2018-03-30T20:32:30.861Z,136.37
2018-03-30T20:34:59.755Z,80.37
2018-03-30T20:37:29.795Z,90.07
2018-03-30T20:39:57.260Z,126.33
2018-03-30T20:42:25.661Z,116.87
2018-03-30T20:44:53.151Z,133.30
2018-03-30T20:47:20.489Z,139.67
2018-03-30T20:49:47.870Z,128.13
2018-03-30T20:52:15.219Z,107.07
2018-03-30T20:54:42.804Z,127.07
2018-03-30T20:57:10.142Z,105.20
2018-03-30T20:59:37.386Z,125.97
2018-03-30T21:02:05.020Z,102.23
2018-03-30T21:04:32.226Z,110.87
2018-03-30T21:07:00.802Z,104.17
2018-03-30T21:09:27.911Z,104.03
2018-03-30T21:11:55.027Z,99.13
2018-03-30T21:14:22.147Z,92.53
2018-03-30T21:16:49.219Z,75.80
2018-03-30T21:19:17.124Z,91.87
2018-03-30T21:21:44.187Z,96.27
2018-03-30T21:24:11.252Z,111.20
2018-03-30T21:26:38.362Z,106.97
2018-03-30T21:29:05.445Z,101.40
2018-03-30T21:31:32.522Z,91.27
2018-03-30T21:34:00.416Z,98.23
2018-03-30T21:36:27.695Z,94.50
2018-03-30T21:38:54.839Z,110.03
2018-03-30T21:41:22.215Z,198.00
2018-03-30T21:43:49.545Z,200.33
2018-03-30T21:46:16.633Z,130.03
2018-03-30T21:48:44.858Z,107.87
2018-03-30T21:51:11.988Z,92.43
2018-03-30T21:53:39.064Z,103.37
2018-03-30T21:56:06.443Z,106.70
2018-03-30T21:58:33.567Z,200.20
2018-03-30T22:01:00.639Z,122.27
2018-03-30T22:03:27.760Z,72.60
2018-03-30T22:05:54.826Z,112.10
2018-03-30T22:08:21.895Z,223.17
2018-03-30T22:10:49.006Z,58.43
2018-03-30T22:13:16.086Z,84.67
2018-03-30T22:15:43.160Z,91.83
2018-03-30T22:18:10.446Z,77.57
2018-03-30T22:20:37.528Z,78.03
2018-03-30T22:23:04.596Z,72.07
2018-03-30T22:25:32.642Z,78.30
2018-03-30T22:27:59.742Z,83.40
2018-03-30T22:30:26.908Z,59.43
2018-03-30T22:32:54.035Z,96.87
2018-03-30T22:35:21.097Z,91.73
2018-03-30T22:37:48.370Z,153.97
2018-03-30T22:40:15.524Z,135.13
2018-03-30T22:42:42.582Z,153.83
2018-03-30T22:45:09.643Z,83.30
2018-03-30T22:47:37.544Z,76.43
2018-03-30T22:50:04.622Z,139.30
2018-03-30T22:52:31.683Z,92.17
2018-03-30T22:54:59.183Z,82.97
2018-03-30T22:57:26.268Z,70.90
2018-03-30T22:59:53.322Z,55.40
2018-03-30T23:02:20.423Z,60.73
2018-03-30T23:04:48.324Z,141.53
2018-03-30T23:07:15.399Z,54.93
2018-03-30T23:09:42.523Z,48.00
2018-03-30T23:12:09.588Z,382.63
2018-03-30T23:14:36.637Z,54.73
2018-03-30T23:17:03.745Z,45.83
2018-03-30T23:19:30.855Z,49.37
2018-03-30T23:21:57.975Z,52.93
2018-03-30T23:24:25.218Z,60.03
2018-03-30T23:26:52.308Z,41.77
2018-03-30T23:29:20.140Z,56.63
2018-03-30T23:31:47.242Z,72.83
2018-03-30T23:34:14.316Z,56.90
2018-03-30T23:36:41.564Z,50.40
2018-03-30T23:39:08.893Z,63.30
2018-03-30T23:41:36.138Z,46.07
2018-03-30T23:44:03.216Z,48.13
2018-03-30T23:46:30.345Z,49.53
2018-03-30T23:48:57.468Z,67.30
2018-03-30T23:51:24.522Z,46.30
2018-03-30T23:53:51.846Z,168.00
2018-03-30T23:56:18.905Z,38.10
2018-03-30T23:58:45.965Z,45.10
